Time;durP1;ratioP1;P1;durP2;ratioP2;P2;SDS_P1;SDS_P2;PMS_P1;PMS_P2;Temp;Humidity;BMP_temperature;BMP_pressure;BME280_temperature;BME280_humidity;BME280_pressure;Samples;Min_cycle;Max_cycle;Signal;HPM_P1;HPM_P2
2022/10/28 00:02:01;;;;;;;6.37;4.60;;;15.70;99.90;;;;;;4973451;28;20238;-62
2022/10/28 00:04:27;;;;;;;6.30;5.10;;;15.70;99.90;;;;;;4974638;28;20729;-62
2022/10/28 00:06:52;;;;;;;5.03;4.30;;;15.60;99.90;;;;;;4974214;28;20303;-62
2022/10/28 00:09:18;;;;;;;9.27;5.07;;;15.60;99.90;;;;;;4974150;28;20633;-62
2022/10/28 00:11:43;;;;;;;5.83;5.23;;;15.60;99.90;;;;;;4973325;28;20208;-62
2022/10/28 00:14:10;;;;;;;8.60;5.40;;;15.60;99.90;;;;;;4972851;28;20263;-62
2022/10/28 00:16:37;;;;;;;9.57;4.57;;;15.70;99.90;;;;;;4974634;28;20197;-62
2022/10/28 00:19:04;;;;;;;8.50;4.80;;;15.70;99.90;;;;;;4973644;28;20439;-63
2022/10/28 00:21:32;;;;;;;5.07;4.60;;;15.80;99.90;;;;;;4971003;28;20471;-62
2022/10/28 00:23:58;;;;;;;17.53;4.93;;;15.80;99.90;;;;;;4971714;28;20455;-62
2022/10/28 00:26:30;;;;;;;8.13;5.17;;;15.80;99.90;;;;;;4974068;28;20467;-62
2022/10/28 00:28:57;;;;;;;8.87;4.23;;;15.70;99.90;;;;;;4973762;28;20185;-63
2022/10/28 00:31:25;;;;;;;7.07;4.50;;;15.70;99.90;;;;;;4972501;28;20466;-62
2022/10/28 00:33:51;;;;;;;8.97;5.33;;;15.60;99.90;;;;;;4968017;28;20471;-62
2022/10/28 00:36:25;;;;;;;11.87;5.13;;;15.50;99.90;;;;;;4973313;28;20554;-62
2022/10/28 00:38:53;;;;;;;11.10;4.47;;;15.40;99.90;;;;;;4971700;28;20861;-62
2022/10/28 00:41:21;;;;;;;9.90;5.03;;;15.40;99.90;;;;;;4971330;28;20470;-63
2022/10/28 00:43:50;;;;;;;6.10;4.87;;;15.40;99.90;;;;;;4972922;28;20439;-62
2022/10/28 00:46:41;;;;;;;6.27;4.73;;;15.40;99.90;;;;;;4973077;28;20459;-62
2022/10/28 00:49:20;;;;;;;10.43;4.97;;;15.40;99.90;;;;;;4970193;28;20531;-64
2022/10/28 00:51:54;;;;;;;6.50;5.33;;;15.50;99.90;;;;;;4969947;28;20490;-62
2022/10/28 00:54:21;;;;;;;5.87;4.70;;;15.50;99.90;;;;;;4970532;28;20822;-62
2022/10/28 00:56:51;;;;;;;10.07;4.50;;;15.60;99.90;;;;;;4973306;28;20542;-62
2022/10/28 00:59:34;;;;;;;5.53;4.43;;;15.80;99.90;;;;;;4971942;28;20443;-63
2022/10/28 01:02:00;;;;;;;5.50;4.90;;;15.90;99.90;;;;;;4970830;28;20526;-62
2022/10/28 01:04:26;;;;;;;8.40;4.40;;;16.00;99.90;;;;;;4972777;28;20895;-62
2022/10/28 01:06:51;;;;;;;10.00;4.23;;;16.10;99.90;;;;;;4971703;28;20215;-62
2022/10/28 01:09:17;;;;;;;8.00;4.90;;;16.10;99.90;;;;;;4971311;28;21006;-62
2022/10/28 01:11:54;;;;;;;11.37;5.63;;;16.10;99.90;;;;;;4972896;28;20192;-63
2022/10/28 01:14:42;;;;;;;9.23;4.50;;;16.00;99.90;;;;;;4967785;28;20596;-62
2022/10/28 01:17:08;;;;;;;11.10;7.17;;;16.00;99.90;;;;;;4971273;28;20983;-62
2022/10/28 01:19:39;;;;;;;9.17;5.50;;;16.00;99.90;;;;;;4973279;28;20439;-62
2022/10/28 01:22:42;;;;;;;6.73;5.20;;;16.00;99.90;;;;;;4972084;28;20211;-62
2022/10/28 01:25:13;;;;;;;11.33;5.47;;;16.00;99.90;;;;;;4969989;28;20478;-63
2022/10/28 01:28:14;;;;;;;13.93;6.00;;;16.00;99.90;;;;;;4967379;28;20781;-62
2022/10/28 01:31:00;;;;;;;12.43;5.97;;;15.90;99.90;;;;;;4957828;28;20450;-62
2022/10/28 01:33:35;;;;;;;12.40;5.60;;;15.90;99.90;;;;;;4970102;28;20498;-62
2022/10/28 01:36:25;;;;;;;6.50;4.80;;;15.80;99.90;;;;;;4972004;28;20459;-62
2022/10/28 01:39:00;;;;;;;10.73;4.70;;;15.80;99.90;;;;;;4971367;28;20435;-62
2022/10/28 01:41:35;;;;;;;9.60;5.23;;;15.70;99.90;;;;;;4971768;28;20469;-62
2022/10/28 01:44:23;;;;;;;12.10;5.13;;;15.70;99.90;;;;;;4971496;28;20432;-62
2022/10/28 01:47:11;;;;;;;14.90;5.30;;;15.70;99.90;;;;;;4970523;28;21117;-62
2022/10/28 01:49:50;;;;;;;6.80;5.23;;;15.60;99.90;;;;;;4968452;28;20439;-62
2022/10/28 01:52:20;;;;;;;5.73;4.37;;;15.60;99.90;;;;;;4971544;28;20451;-62
2022/10/28 01:54:49;;;;;;;7.73;5.00;;;15.60;99.90;;;;;;4970084;28;20863;-64
2022/10/28 01:57:17;;;;;;;13.17;5.20;;;15.60;99.90;;;;;;4972157;28;20467;-63
2022/10/28 01:59:46;;;;;;;8.00;5.37;;;15.60;99.90;;;;;;4971080;28;20482;-63
2022/10/28 02:02:13;;;;;;;9.27;5.03;;;15.70;99.90;;;;;;4971391;28;21476;-64
2022/10/28 02:04:39;;;;;;;8.43;5.30;;;15.60;99.90;;;;;;4971629;28;20471;-65
2022/10/28 02:07:05;;;;;;;7.30;5.90;;;15.60;99.90;;;;;;4971388;28;20463;-64
2022/10/28 02:10:08;;;;;;;5.23;4.73;;;15.60;99.90;;;;;;4970034;28;20184;-64
2022/10/28 02:12:36;;;;;;;6.90;5.33;;;15.50;99.90;;;;;;4971032;28;20590;-65
2022/10/28 02:15:13;;;;;;;6.67;5.00;;;15.60;99.90;;;;;;4969750;28;20467;-64
2022/10/28 02:17:49;;;;;;;11.80;5.77;;;15.60;99.90;;;;;;4967382;28;20462;-63
2022/10/28 02:20:48;;;;;;;7.50;5.50;;;15.60;99.90;;;;;;4970885;28;20865;-63
2022/10/28 02:23:35;;;;;;;8.13;5.10;;;15.60;99.90;;;;;;4969237;28;20436;-63
2022/10/28 02:26:21;;;;;;;9.13;4.00;;;15.60;99.90;;;;;;4972057;28;20478;-65
2022/10/28 02:29:01;;;;;;;7.57;5.20;;;15.70;99.90;;;;;;4967933;28;20471;-64
2022/10/28 02:31:43;;;;;;;7.77;5.63;;;15.60;99.90;;;;;;4965829;28;20436;-64
2022/10/28 02:34:18;;;;;;;11.13;6.37;;;15.60;99.90;;;;;;4971637;28;20486;-64
2022/10/28 02:36:48;;;;;;;10.43;5.27;;;15.60;99.90;;;;;;4971604;28;20459;-65
2022/10/28 02:39:17;;;;;;;7.40;4.63;;;15.60;99.90;;;;;;4971325;28;20450;-63
2022/10/28 02:41:57;;;;;;;6.47;5.10;;;15.40;99.90;;;;;;4971295;28;20445;-64
2022/10/28 02:44:28;;;;;;;10.10;5.20;;;15.40;99.90;;;;;;4967409;28;20443;-64
2022/10/28 02:46:57;;;;;;;6.07;5.50;;;15.30;99.90;;;;;;4971527;28;20939;-63
2022/10/28 02:49:24;;;;;;;11.80;5.10;;;15.40;99.90;;;;;;4970450;28;20498;-64
2022/10/28 02:51:57;;;;;;;9.17;5.50;;;15.30;99.90;;;;;;4968684;28;20817;-63
2022/10/28 02:54:34;;;;;;;8.37;4.43;;;15.30;99.90;;;;;;4971828;28;20502;-63
2022/10/28 02:57:05;;;;;;;10.87;5.40;;;15.30;99.90;;;;;;4970483;28;20462;-63
2022/10/28 02:59:30;;;;;;;6.97;5.20;;;15.30;99.90;;;;;;4970475;28;20443;-63
2022/10/28 03:01:56;;;;;;;10.27;5.20;;;15.30;99.90;;;;;;4971648;28;20446;-63
2022/10/28 03:04:22;;;;;;;8.27;4.97;;;15.30;99.90;;;;;;4967556;28;20176;-63
2022/10/28 03:06:47;;;;;;;10.17;5.00;;;15.20;99.90;;;;;;4969814;28;20298;-63
2022/10/28 03:09:13;;;;;;;8.00;5.30;;;15.20;99.90;;;;;;4969310;28;20200;-64
2022/10/28 03:11:38;;;;;;;8.10;4.80;;;15.20;99.90;;;;;;4970934;28;20191;-64
2022/10/28 03:14:04;;;;;;;10.33;4.80;;;15.20;99.90;;;;;;4970981;28;20204;-63
2022/10/28 03:16:29;;;;;;;11.60;5.63;;;15.20;99.90;;;;;;4969924;28;20214;-63
2022/10/28 03:18:55;;;;;;;10.40;6.07;;;15.20;99.90;;;;;;4971258;28;20541;-65
2022/10/28 03:21:21;;;;;;;9.23;5.20;;;15.10;99.90;;;;;;4969646;28;20658;-63
2022/10/28 03:23:46;;;;;;;6.07;4.27;;;15.20;99.90;;;;;;4970149;28;20614;-65
2022/10/28 03:26:12;;;;;;;10.67;5.43;;;15.30;99.90;;;;;;4969360;28;20211;-64
2022/10/28 03:28:38;;;;;;;14.10;5.60;;;15.30;99.90;;;;;;4973631;28;20181;-65
2022/10/28 03:31:04;;;;;;;7.50;4.90;;;15.40;99.90;;;;;;4974987;28;20184;-63
2022/10/28 03:33:29;;;;;;;11.50;5.50;;;15.50;99.90;;;;;;4974231;28;20204;-63
2022/10/28 03:35:55;;;;;;;8.83;5.67;;;15.60;99.90;;;;;;4972086;28;21019;-63
2022/10/28 03:38:20;;;;;;;7.67;5.03;;;15.70;99.90;;;;;;4973412;28;20186;-63
2022/10/28 03:40:47;;;;;;;9.43;4.50;;;15.70;99.90;;;;;;4975310;28;20597;-64
2022/10/28 03:43:13;;;;;;;9.20;5.97;;;15.70;99.90;;;;;;4974470;28;20184;-64
2022/10/28 03:45:39;;;;;;;7.13;5.03;;;15.70;99.90;;;;;;4973815;28;20462;-63
2022/10/28 03:48:05;;;;;;;11.10;5.00;;;15.70;99.90;;;;;;4974244;28;20188;-67
2022/10/28 03:50:30;;;;;;;6.83;5.23;;;15.70;99.90;;;;;;4974808;28;20185;-64
2022/10/28 03:52:56;;;;;;;13.73;6.73;;;15.60;99.90;;;;;;4973398;28;20466;-65
2022/10/28 03:55:22;;;;;;;12.43;5.10;;;15.60;99.90;;;;;;4969426;28;20212;-64
2022/10/28 03:57:48;;;;;;;10.27;5.57;;;15.60;99.90;;;;;;4971351;28;20191;-63
2022/10/28 04:00:14;;;;;;;9.90;5.33;;;15.50;99.90;;;;;;4973499;28;20448;-63
2022/10/28 04:02:40;;;;;;;12.63;5.33;;;15.40;99.90;;;;;;4974083;28;20183;-63
2022/10/28 04:05:06;;;;;;;10.53;6.10;;;15.40;99.90;;;;;;4973400;28;20992;-63
2022/10/28 04:07:31;;;;;;;6.83;4.80;;;15.40;99.90;;;;;;4972946;28;20188;-64
2022/10/28 04:09:57;;;;;;;7.30;4.80;;;15.50;99.90;;;;;;4972543;28;20604;-63
2022/10/28 04:12:22;;;;;;;7.37;5.10;;;15.50;99.90;;;;;;4973383;28;20681;-63
2022/10/28 04:14:48;;;;;;;6.80;4.07;;;15.60;99.90;;;;;;4973901;28;20204;-63
2022/10/28 04:17:13;;;;;;;8.80;4.77;;;15.60;99.90;;;;;;4973482;28;20203;-63
2022/10/28 04:19:39;;;;;;;6.00;4.50;;;15.70;99.90;;;;;;4974422;28;20176;-63
2022/10/28 04:22:05;;;;;;;6.87;4.80;;;15.70;99.90;;;;;;4972882;28;20733;-64
2022/10/28 04:24:30;;;;;;;6.60;4.67;;;15.90;99.90;;;;;;4973440;28;20176;-63
2022/10/28 04:26:56;;;;;;;11.17;4.40;;;15.80;99.90;;;;;;4973398;28;20226;-63
2022/10/28 04:29:21;;;;;;;15.10;5.77;;;15.90;99.90;;;;;;4972176;28;20187;-65
2022/10/28 04:31:47;;;;;;;10.33;5.50;;;15.90;99.90;;;;;;4973425;28;20187;-63
2022/10/28 04:34:12;;;;;;;6.57;4.90;;;15.90;99.90;;;;;;4973787;28;20910;-64
2022/10/28 04:36:38;;;;;;;8.20;5.30;;;15.90;99.90;;;;;;4969868;28;20223;-64
2022/10/28 04:39:03;;;;;;;7.80;5.10;;;15.80;99.90;;;;;;4971700;28;20180;-63
2022/10/28 04:41:29;;;;;;;5.73;4.10;;;15.80;99.90;;;;;;4973433;28;20176;-64
2022/10/28 04:43:55;;;;;;;8.10;5.37;;;15.80;99.90;;;;;;4973867;28;20217;-64
2022/10/28 04:46:20;;;;;;;11.80;5.10;;;15.80;99.90;;;;;;4972684;28;20208;-64
2022/10/28 04:48:47;;;;;;;5.30;4.77;;;15.80;99.90;;;;;;4972137;28;20979;-63
2022/10/28 04:51:12;;;;;;;15.60;6.87;;;15.70;99.90;;;;;;4973444;28;20195;-64
2022/10/28 04:53:38;;;;;;;8.40;4.77;;;15.70;99.90;;;;;;4971770;28;20439;-63
2022/10/28 04:56:04;;;;;;;7.63;5.30;;;15.80;99.90;;;;;;4972941;28;20204;-64
2022/10/28 04:58:29;;;;;;;8.77;5.37;;;15.70;99.90;;;;;;4970768;28;20741;-64
2022/10/28 05:00:55;;;;;;;9.17;4.67;;;15.80;99.90;;;;;;4969536;28;20204;-64
2022/10/28 05:03:20;;;;;;;9.10;5.00;;;15.70;99.90;;;;;;4972842;28;20260;-63
2022/10/28 05:05:46;;;;;;;7.63;4.87;;;15.70;99.90;;;;;;4972168;28;20287;-65
2022/10/28 05:08:12;;;;;;;6.93;6.37;;;15.80;99.90;;;;;;4972451;28;20254;-64
2022/10/28 05:10:37;;;;;;;8.93;6.43;;;15.80;99.90;;;;;;4971690;28;20435;-63
2022/10/28 05:13:03;;;;;;;14.60;6.00;;;15.80;99.90;;;;;;4972744;28;20188;-65
2022/10/28 05:15:30;;;;;;;14.47;5.57;;;15.80;99.90;;;;;;4972653;28;20224;-65
2022/10/28 05:17:55;;;;;;;6.83;4.53;;;15.70;99.90;;;;;;4972886;28;20187;-65
2022/10/28 05:20:21;;;;;;;8.20;5.47;;;15.60;99.90;;;;;;4970931;28;20440;-64
2022/10/28 05:22:49;;;;;;;9.93;6.40;;;15.60;99.90;;;;;;4973733;28;20666;-65
2022/10/28 05:27:43;;;;;;;10.23;6.30;;;15.60;99.90;;;;;;4990872;28;20895;-65
2022/10/28 05:30:09;;;;;;;8.40;4.83;;;15.70;99.90;;;;;;4990502;28;20485;-65
2022/10/28 05:32:35;;;;;;;9.37;5.93;;;15.40;99.90;;;;;;4992151;28;20661;-65
2022/10/28 05:35:01;;;;;;;10.90;5.07;;;15.40;99.90;;;;;;4991336;28;20450;-65
2022/10/28 05:37:26;;;;;;;5.57;5.00;;;15.40;99.90;;;;;;4999621;28;20205;-65
2022/10/28 05:39:53;;;;;;;6.23;4.60;;;15.40;99.90;;;;;;4994854;28;20175;-65
2022/10/28 05:42:18;;;;;;;7.57;4.90;;;15.50;99.90;;;;;;5003294;28;20183;-65
2022/10/28 05:44:44;;;;;;;16.03;5.17;;;15.50;99.90;;;;;;4997211;28;20450;-65
2022/10/28 05:47:09;;;;;;;7.57;5.57;;;15.50;99.90;;;;;;5003408;28;20217;-65
2022/10/28 05:49:35;;;;;;;8.33;5.10;;;15.40;99.90;;;;;;4993504;28;20697;-65
2022/10/28 05:52:00;;;;;;;10.13;4.63;;;15.50;99.90;;;;;;4995276;28;20645;-65
2022/10/28 05:54:26;;;;;;;9.50;4.00;;;15.50;99.90;;;;;;4998595;28;20199;-65
2022/10/28 05:56:51;;;;;;;5.67;4.30;;;15.40;99.90;;;;;;4997334;28;20203;-65
2022/10/28 05:59:17;;;;;;;17.70;5.37;;;15.40;99.90;;;;;;5002151;28;20187;-65
2022/10/28 06:01:42;;;;;;;8.63;4.60;;;15.50;99.90;;;;;;5001615;28;20186;-65
2022/10/28 06:04:08;;;;;;;6.17;4.77;;;15.60;99.90;;;;;;4999233;28;20641;-65
2022/10/28 06:06:33;;;;;;;10.93;5.27;;;15.50;99.90;;;;;;4998692;28;20212;-66
2022/10/28 06:08:59;;;;;;;7.87;6.23;;;15.50;99.90;;;;;;4998593;28;20234;-65
2022/10/28 06:11:24;;;;;;;7.33;5.50;;;15.50;99.90;;;;;;4998265;28;20184;-65
2022/10/28 06:13:50;;;;;;;13.50;5.60;;;15.50;99.90;;;;;;4992347;28;20187;-65
2022/10/28 06:16:15;;;;;;;8.40;5.23;;;15.50;99.90;;;;;;4997717;28;20199;-64
2022/10/28 06:18:41;;;;;;;13.30;5.93;;;15.40;99.90;;;;;;4995886;28;20184;-65
2022/10/28 06:21:06;;;;;;;13.23;5.23;;;15.40;99.90;;;;;;5003534;28;20186;-65
2022/10/28 06:23:32;;;;;;;7.03;4.70;;;15.40;99.90;;;;;;4999067;28;20180;-65
2022/10/28 06:25:59;;;;;;;6.80;4.60;;;15.30;99.90;;;;;;5004049;28;20218;-65
2022/10/28 06:28:25;;;;;;;5.70;4.03;;;15.40;99.90;;;;;;4993314;28;20186;-65
2022/10/28 06:30:51;;;;;;;6.07;4.50;;;15.40;99.90;;;;;;4988486;28;20435;-66
2022/10/28 06:33:17;;;;;;;8.43;4.77;;;15.50;99.90;;;;;;4981938;28;20551;-65
2022/10/28 06:35:42;;;;;;;10.33;6.33;;;15.60;99.90;;;;;;4960619;28;20246;-65
2022/10/28 06:38:08;;;;;;;9.23;5.00;;;15.60;99.90;;;;;;4987297;28;20196;-65
2022/10/28 06:40:33;;;;;;;14.87;4.70;;;15.60;99.90;;;;;;4996680;28;20670;-65
2022/10/28 06:43:04;;;;;;;4.70;4.20;;;15.60;99.90;;;;;;4993845;28;20188;-65
2022/10/28 06:45:32;;;;;;;6.53;4.73;;;15.70;99.90;;;;;;4994589;28;20215;-65
2022/10/28 06:48:00;;;;;;;9.50;5.27;;;15.70;99.90;;;;;;5000467;28;20452;-64
2022/10/28 06:50:27;;;;;;;5.27;4.47;;;15.70;99.90;;;;;;4998141;28;20531;-64
2022/10/28 06:52:57;;;;;;;12.57;5.10;;;15.60;99.90;;;;;;4996707;28;21792;-64
2022/10/28 06:55:23;;;;;;;10.20;5.50;;;15.70;99.90;;;;;;4990853;28;20474;-65
2022/10/28 06:57:49;;;;;;;11.10;4.50;;;15.70;99.90;;;;;;4987742;28;20963;-65
2022/10/28 07:00:15;;;;;;;9.53;5.00;;;15.70;99.90;;;;;;4985273;28;20446;-65
2022/10/28 07:02:40;;;;;;;5.83;5.23;;;15.70;99.90;;;;;;4989942;28;20183;-64
2022/10/28 07:05:06;;;;;;;9.60;4.70;;;15.80;99.90;;;;;;5001976;28;20187;-66
2022/10/28 07:07:32;;;;;;;7.70;4.37;;;15.90;99.90;;;;;;4990232;28;20338;-65
2022/10/28 07:09:57;;;;;;;8.43;4.10;;;16.00;99.90;;;;;;4987958;28;20449;-65
2022/10/28 07:12:23;;;;;;;7.90;4.50;;;16.10;99.90;;;;;;4999947;28;20582;-65
2022/10/28 07:14:48;;;;;;;13.07;7.40;;;16.10;99.90;;;;;;4994141;28;20218;-65
2022/10/28 07:17:14;;;;;;;4.83;4.30;;;16.10;99.90;;;;;;5001115;28;20203;-65
2022/10/28 07:19:39;;;;;;;7.23;4.53;;;16.10;99.90;;;;;;5001358;28;20274;-64
2022/10/28 07:22:05;;;;;;;6.13;4.77;;;16.00;99.90;;;;;;4999740;28;20265;-65
2022/10/28 07:24:30;;;;;;;8.30;4.53;;;16.20;99.90;;;;;;4992470;28;20218;-65
2022/10/28 07:26:56;;;;;;;4.87;4.37;;;16.20;99.90;;;;;;4992246;28;20659;-66
2022/10/28 07:29:21;;;;;;;5.43;4.80;;;16.20;99.90;;;;;;4998139;28;20659;-65
2022/10/28 07:31:47;;;;;;;6.30;4.23;;;17.00;99.90;;;;;;5002481;28;20195;-65
2022/10/28 07:34:12;;;;;;;8.20;5.33;;;16.60;99.90;;;;;;4993937;28;20210;-65
2022/10/28 07:36:38;;;;;;;10.63;5.07;;;16.60;99.90;;;;;;4997918;28;20214;-66
2022/10/28 07:39:04;;;;;;;9.47;5.00;;;16.70;99.90;;;;;;5000334;28;20242;-66
2022/10/28 07:41:29;;;;;;;7.97;5.30;;;16.70;99.90;;;;;;5005269;28;20339;-66
2022/10/28 07:43:55;;;;;;;7.67;5.33;;;16.70;99.90;;;;;;4995815;28;20183;-66
2022/10/28 07:46:21;;;;;;;9.67;4.33;;;16.70;99.90;;;;;;5003504;28;20285;-65
2022/10/28 07:48:46;;;;;;;7.47;4.63;;;16.70;99.90;;;;;;4992826;28;20693;-65
2022/10/28 07:51:13;;;;;;;7.03;4.43;;;16.70;99.90;;;;;;4996155;28;20187;-66
2022/10/28 07:53:39;;;;;;;9.83;5.13;;;16.60;99.90;;;;;;4986575;28;20278;-65
2022/10/28 07:56:08;;;;;;;10.60;5.67;;;16.70;99.90;;;;;;4993039;28;20557;-65
2022/10/28 07:58:35;;;;;;;6.23;5.63;;;16.90;99.90;;;;;;4988898;28;20467;-65
2022/10/28 08:01:03;;;;;;;5.70;4.30;;;17.10;99.90;;;;;;4995045;28;20501;-66
2022/10/28 08:03:28;;;;;;;7.43;4.40;;;17.10;99.90;;;;;;4988506;28;20994;-64
2022/10/28 08:06:05;;;;;;;4.70;4.27;;;17.30;99.90;;;;;;5000695;28;20470;-65
2022/10/28 08:08:30;;;;;;;9.63;4.50;;;17.40;99.90;;;;;;4989222;28;20290;-65
2022/10/28 08:10:56;;;;;;;11.87;4.50;;;17.50;99.90;;;;;;4993066;28;20530;-65
2022/10/28 08:13:21;;;;;;;8.13;4.53;;;17.40;99.90;;;;;;4989388;28;20194;-65
2022/10/28 08:15:52;;;;;;;7.80;5.13;;;17.40;99.90;;;;;;4988091;28;20305;-65
2022/10/28 08:18:17;;;;;;;7.20;4.53;;;17.50;99.90;;;;;;4999026;28;20269;-66
2022/10/28 08:20:43;;;;;;;5.80;3.90;;;17.40;99.90;;;;;;4992733;28;20680;-65
2022/10/28 08:23:08;;;;;;;6.47;4.77;;;17.60;99.90;;;;;;4993054;28;20184;-66
2022/10/28 08:25:34;;;;;;;8.90;4.60;;;17.60;99.90;;;;;;4996900;28;20672;-65
2022/10/28 08:27:59;;;;;;;6.37;5.13;;;17.70;99.90;;;;;;4992233;28;20245;-64
2022/10/28 08:30:25;;;;;;;5.70;3.90;;;17.90;99.90;;;;;;4989167;28;20222;-65
2022/10/28 08:32:50;;;;;;;12.43;6.77;;;17.90;99.90;;;;;;4985560;28;20234;-65
2022/10/28 08:35:16;;;;;;;11.43;6.27;;;17.90;99.90;;;;;;4984972;28;20954;-66
2022/10/28 08:37:44;;;;;;;6.60;5.60;;;17.90;99.90;;;;;;4995826;28;20383;-65
2022/10/28 08:40:11;;;;;;;8.40;6.20;;;17.90;99.90;;;;;;4994767;28;20208;-65
2022/10/28 08:42:47;;;;;;;9.87;5.67;;;17.90;99.90;;;;;;4990720;28;20447;-65
2022/10/28 08:45:21;;;;;;;12.43;5.47;;;18.00;99.90;;;;;;4988167;28;20450;-65
2022/10/28 08:48:23;;;;;;;10.20;5.20;;;18.10;99.90;;;;;;4990323;28;20766;-64
2022/10/28 08:50:57;;;;;;;8.30;5.97;;;18.20;99.90;;;;;;4985180;28;20450;-65
2022/10/28 08:53:31;;;;;;;11.00;6.00;;;18.30;99.90;;;;;;4969647;28;20446;-65
2022/10/28 08:56:13;;;;;;;14.73;11.83;;;18.50;99.90;;;;;;4993297;28;20474;-65
2022/10/28 08:58:40;;;;;;;9.23;5.93;;;18.70;99.90;;;;;;4991958;28;20477;-65
2022/10/28 09:01:12;;;;;;;13.73;5.07;;;19.00;99.90;;;;;;4993447;28;20434;-64
2022/10/28 09:03:42;;;;;;;6.30;4.13;;;19.20;99.90;;;;;;4994781;28;20458;-65
2022/10/28 09:06:09;;;;;;;7.93;4.10;;;19.60;99.90;;;;;;4994951;28;20939;-65
2022/10/28 09:08:44;;;;;;;8.53;4.43;;;19.70;99.90;;;;;;4992691;28;20438;-65
2022/10/28 09:11:09;;;;;;;7.60;4.93;;;20.10;99.90;;;;;;4990123;28;20449;-65
2022/10/28 09:14:03;;;;;;;8.90;4.47;;;20.20;99.90;;;;;;4989730;28;20418;-64
2022/10/28 09:17:17;;;;;;;5.93;4.30;;;20.40;99.90;;;;;;4986139;28;20298;-65
2022/10/28 09:19:46;;;;;;;8.50;4.53;;;20.50;99.90;;;;;;4977526;28;20443;-65
2022/10/28 09:22:38;;;;;;;12.33;5.90;;;20.60;99.90;;;;;;4993044;28;20892;-65
2022/10/28 09:25:20;;;;;;;8.97;5.67;;;20.50;99.90;;;;;;4990456;28;20522;-65
2022/10/28 09:27:54;;;;;;;6.50;5.00;;;20.60;99.90;;;;;;4992937;28;20481;-64
2022/10/28 09:30:29;;;;;;;6.37;4.10;;;20.40;99.90;;;;;;4991477;28;20426;-65
2022/10/28 09:33:20;;;;;;;6.40;5.50;;;20.40;99.90;;;;;;4992759;28;21144;-65
2022/10/28 09:35:46;;;;;;;6.90;4.60;;;20.30;99.90;;;;;;4988242;28;20474;-64
2022/10/28 09:38:30;;;;;;;6.90;3.97;;;19.80;99.90;;;;;;4992367;28;20439;-64
2022/10/28 09:41:14;;;;;;;5.57;3.50;;;19.50;99.90;;;;;;4989136;28;20439;-65
2022/10/28 09:44:21;;;;;;;4.00;3.00;;;19.70;99.90;;;;;;4990526;28;20430;-64
2022/10/28 09:46:50;;;;;;;6.67;4.10;;;20.00;99.90;;;;;;4983107;28;21001;-65
2022/10/28 09:49:21;;;;;;;7.33;3.93;;;20.60;99.90;;;;;;5000552;28;20430;-64
2022/10/28 09:51:54;;;;;;;6.90;3.90;;;21.10;99.90;;;;;;4992873;28;20426;-64
2022/10/28 09:54:32;;;;;;;8.93;3.60;;;21.90;99.90;;;;;;4985534;28;20469;-65
2022/10/28 09:56:58;;;;;;;7.33;3.60;;;22.90;99.90;;;;;;4999130;28;20465;-65
2022/10/28 09:59:24;;;;;;;7.33;2.80;;;23.50;99.90;;;;;;4996542;28;20438;-65
2022/10/28 10:01:49;;;;;;;10.63;3.80;;;25.00;99.90;;;;;;4996089;28;20218;-65
2022/10/28 10:04:21;;;;;;;7.93;2.67;;;26.80;99.20;;;;;;4989168;28;20183;-65
2022/10/28 10:07:09;;;;;;;4.30;2.80;;;26.10;94.60;;;;;;4989020;28;20202;-65
2022/10/28 10:09:37;;;;;;;5.53;2.80;;;25.20;95.40;;;;;;4984674;28;20477;-65
2022/10/28 10:12:11;;;;;;;7.70;2.97;;;24.60;95.40;;;;;;4994693;28;20434;-67
2022/10/28 10:14:42;;;;;;;7.10;2.67;;;24.20;96.30;;;;;;4987646;28;20890;-67
2022/10/28 10:17:34;;;;;;;6.30;2.27;;;23.80;96.30;;;;;;5002605;28;20507;-66
2022/10/28 10:20:05;;;;;;;6.50;4.00;;;23.30;98.10;;;;;;4993849;28;20496;-68
2022/10/28 10:22:40;;;;;;;6.70;2.93;;;23.00;99.90;;;;;;4994681;28;20477;-67
2022/10/28 10:25:17;;;;;;;5.10;2.70;;;22.90;99.70;;;;;;4988622;28;20434;-67
2022/10/28 10:28:12;;;;;;;12.90;3.50;;;22.60;99.90;;;;;;5000849;28;20452;-68
2022/10/28 10:30:47;;;;;;;11.80;3.57;;;22.10;99.90;;;;;;4990746;28;20438;-68
2022/10/28 10:33:27;;;;;;;6.57;4.10;;;21.60;99.90;;;;;;4996097;28;20429;-66
2022/10/28 10:35:56;;;;;;;10.07;3.17;;;21.50;99.90;;;;;;4990093;28;20473;-67
2022/10/28 10:38:22;;;;;;;6.57;4.30;;;21.70;99.90;;;;;;4992966;28;20767;-67
2022/10/28 10:40:50;;;;;;;4.23;3.83;;;21.90;99.90;;;;;;5000438;28;20444;-69
2022/10/28 10:43:22;;;;;;;2.73;2.30;;;22.00;99.90;;;;;;4995660;28;20263;-67
2022/10/28 10:46:11;;;;;;;8.77;3.27;;;22.20;99.90;;;;;;4994158;28;20470;-67
2022/10/28 10:48:36;;;;;;;6.40;2.83;;;22.10;99.90;;;;;;4998221;28;20444;-67
2022/10/28 10:51:11;;;;;;;5.27;3.03;;;22.10;99.90;;;;;;4995134;28;20438;-68
2022/10/28 10:53:38;;;;;;;3.97;2.87;;;22.10;99.90;;;;;;4988909;28;20174;-68
2022/10/28 10:56:08;;;;;;;5.43;3.20;;;22.10;99.90;;;;;;4993323;28;20572;-65
2022/10/28 10:58:36;;;;;;;9.60;3.40;;;22.20;99.90;;;;;;4997086;28;20438;-68
2022/10/28 11:01:06;;;;;;;4.83;3.40;;;22.20;99.90;;;;;;4990893;28;21105;-68
2022/10/28 11:03:38;;;;;;;8.73;2.70;;;22.20;99.90;;;;;;4995253;28;20445;-69
2022/10/28 11:06:06;;;;;;;3.30;2.40;;;22.30;99.90;;;;;;4996237;28;20461;-68
2022/10/28 11:08:40;;;;;;;9.83;4.03;;;22.40;99.90;;;;;;4995322;28;20488;-69
2022/10/28 11:11:18;;;;;;;6.67;2.70;;;22.60;99.90;;;;;;5000655;28;20434;-68
2022/10/28 11:13:45;;;;;;;6.53;2.40;;;22.70;99.90;;;;;;4986266;28;20446;-68
2022/10/28 11:16:22;;;;;;;6.00;2.67;;;22.80;99.90;;;;;;5002002;28;20477;-69
2022/10/28 11:18:51;;;;;;;3.43;3.13;;;22.70;99.90;;;;;;4991521;28;20436;-68
2022/10/28 11:21:35;;;;;;;5.93;2.20;;;22.70;99.90;;;;;;4997426;28;20491;-69
2022/10/28 11:24:15;;;;;;;5.33;2.93;;;22.50;99.90;;;;;;4989333;28;20793;-69
2022/10/28 11:26:58;;;;;;;9.50;3.13;;;22.50;99.90;;;;;;5001963;28;20465;-68
2022/10/28 11:29:24;;;;;;;6.80;3.13;;;22.50;99.90;;;;;;5001944;28;20982;-68
2022/10/28 11:32:01;;;;;;;4.00;3.13;;;22.60;99.90;;;;;;5002577;28;20469;-68
2022/10/28 11:34:48;;;;;;;5.43;2.23;;;23.00;99.90;;;;;;4993480;28;20215;-68
2022/10/28 11:37:28;;;;;;;9.40;3.50;;;23.90;99.10;;;;;;5007628;28;20461;-69
2022/10/28 11:40:04;;;;;;;5.67;3.10;;;23.80;99.90;;;;;;5000267;28;20521;-68
2022/10/28 11:43:01;;;;;;;8.83;3.50;;;23.20;99.90;;;;;;4997086;28;20440;-67
2022/10/28 11:45:54;;;;;;;6.20;2.80;;;22.20;99.90;;;;;;4993830;28;20445;-68
2022/10/28 11:49:01;;;;;;;3.77;3.07;;;21.90;99.90;;;;;;5003887;28;20430;-68
2022/10/28 11:51:38;;;;;;;5.27;3.20;;;22.20;99.90;;;;;;4990708;28;20475;-67
2022/10/28 11:54:35;;;;;;;8.47;4.63;;;22.00;99.90;;;;;;4995458;28;20458;-69
2022/10/28 11:57:08;;;;;;;4.40;2.70;;;21.90;99.90;;;;;;4995960;28;20566;-68
2022/10/28 12:00:28;;;;;;;6.90;2.80;;;22.30;99.90;;;;;;5006649;28;20437;-69
2022/10/28 12:03:21;;;;;;;4.87;2.87;;;22.50;99.90;;;;;;4984924;28;20581;-68
2022/10/28 12:05:54;;;;;;;6.30;3.00;;;22.70;99.90;;;;;;4998280;28;20595;-69
2022/10/28 12:08:56;;;;;;;10.83;3.60;;;22.80;99.90;;;;;;4991482;28;20469;-68
2022/10/28 12:11:53;;;;;;;6.93;2.87;;;22.70;99.90;;;;;;4999300;28;20433;-68
2022/10/28 12:14:25;;;;;;;4.50;3.20;;;22.80;99.90;;;;;;5001262;28;20455;-68
2022/10/28 12:16:55;;;;;;;5.27;3.47;;;23.00;99.90;;;;;;5001727;28;20462;-69
2022/10/28 12:19:33;;;;;;;11.00;3.40;;;23.70;99.90;;;;;;4994040;28;20438;-68
2022/10/28 12:22:16;;;;;;;11.83;3.67;;;25.40;99.90;;;;;;4995863;28;20472;-68
2022/10/28 12:24:44;;;;;;;6.13;3.33;;;27.80;96.30;;;;;;4995655;28;20434;-69
2022/10/28 12:27:15;;;;;;;7.00;4.20;;;31.00;91.30;;;;;;4995528;28;20616;-70
2022/10/28 12:29:46;;;;;;;6.63;4.07;;;33.30;79.10;;;;;;5002710;28;20451;-70
2022/10/28 12:32:19;;;;;;;8.37;3.53;;;34.50;70.30;;;;;;5001620;28;20810;-69
2022/10/28 12:34:52;;;;;;;12.63;3.67;;;35.60;63.30;;;;;;4989009;28;20527;-69
2022/10/28 12:37:23;;;;;;;8.13;3.70;;;36.80;57.30;;;;;;4993082;28;20477;-69
2022/10/28 12:40:17;;;;;;;10.67;3.27;;;37.70;53.70;;;;;;4989349;28;20443;-69
2022/10/28 12:43:11;;;;;;;6.67;3.37;;;38.20;50.90;;;;;;4996323;28;20438;-68
2022/10/28 12:45:38;;;;;;;7.53;3.67;;;38.80;48.60;;;;;;4990498;28;20587;-69
2022/10/28 12:48:26;;;;;;;6.90;3.93;;;39.40;46.40;;;;;;5001829;28;20439;-69
2022/10/28 12:51:03;;;;;;;4.40;3.57;;;39.30;45.00;;;;;;4995989;28;20441;-69
2022/10/28 12:53:55;;;;;;;6.67;3.37;;;39.00;44.90;;;;;;4992339;28;20500;-69
2022/10/28 12:56:28;;;;;;;4.47;3.43;;;39.40;44.50;;;;;;4995960;28;21036;-68
2022/10/28 12:59:04;;;;;;;14.27;4.33;;;40.10;43.60;;;;;;4986663;28;20484;-69
2022/10/28 13:01:31;;;;;;;9.87;3.63;;;40.40;43.00;;;;;;4990590;28;20438;-69
2022/10/28 13:03:57;;;;;;;6.77;3.97;;;40.50;42.50;;;;;;4987580;28;22215;-69
2022/10/28 13:06:46;;;;;;;8.33;3.73;;;39.60;42.20;;;;;;4990688;28;20467;-68
2022/10/28 13:09:34;;;;;;;9.37;3.97;;;36.70;44.40;;;;;;4994536;28;20579;-69